sensor_id;sensor_type;location;lat;lon;timestamp;temperature;humidity
18392;DHT22;9322;50.932;5.318;2023-11-22T00:00:36;5.30;1.40
18392;DHT22;9322;50.932;5.318;2023-11-22T00:03:02;5.30;1.40
18392;DHT22;9322;50.932;5.318;2023-11-22T00:05:28;5.30;1.40
18392;DHT22;9322;50.932;5.318;2023-11-22T00:07:53;5.30;1.40
18392;DHT22;9322;50.932;5.318;2023-11-22T00:10:19;5.30;1.40
18392;DHT22;9322;50.932;5.318;2023-11-22T00:12:45;5.30;1.40
18392;DHT22;9322;50.932;5.318;2023-11-22T00:15:11;5.20;1.40
18392;DHT22;9322;50.932;5.318;2023-11-22T00:17:37;5.20;1.40
18392;DHT22;9322;50.932;5.318;2023-11-22T00:20:03;5.10;1.40
18392;DHT22;9322;50.932;5.318;2023-11-22T00:22:34;5.20;1.40
18392;DHT22;9322;50.932;5.318;2023-11-22T00:25:00;5.10;1.40
18392;DHT22;9322;50.932;5.318;2023-11-22T00:27:27;5.20;1.40
18392;DHT22;9322;50.932;5.318;2023-11-22T00:29:53;5.20;1.40
18392;DHT22;9322;50.932;5.318;2023-11-22T00:32:19;5.30;1.40
18392;DHT22;9322;50.932;5.318;2023-11-22T00:34:45;5.20;1.40
18392;DHT22;9322;50.932;5.318;2023-11-22T00:37:10;5.20;1.40
18392;DHT22;9322;50.932;5.318;2023-11-22T00:39:36;5.10;1.40
18392;DHT22;9322;50.932;5.318;2023-11-22T00:42:03;5.20;1.40
18392;DHT22;9322;50.932;5.318;2023-11-22T00:44:29;5.10;1.40
18392;DHT22;9322;50.932;5.318;2023-11-22T00:46:55;5.10;1.40
18392;DHT22;9322;50.932;5.318;2023-11-22T00:49:23;5.10;1.40
18392;DHT22;9322;50.932;5.318;2023-11-22T00:51:49;5.00;1.40
18392;DHT22;9322;50.932;5.318;2023-11-22T00:54:16;5.10;1.40
18392;DHT22;9322;50.932;5.318;2023-11-22T00:56:42;5.00;1.40
18392;DHT22;9322;50.932;5.318;2023-11-22T00:59:07;4.90;1.40
18392;DHT22;9322;50.932;5.318;2023-11-22T01:01:34;4.80;1.40
18392;DHT22;9322;50.932;5.318;2023-11-22T01:04:00;4.80;1.40
18392;DHT22;9322;50.932;5.318;2023-11-22T01:06:25;4.80;1.40
18392;DHT22;9322;50.932;5.318;2023-11-22T01:08:51;4.80;1.40
18392;DHT22;9322;50.932;5.318;2023-11-22T01:11:17;4.70;1.40
18392;DHT22;9322;50.932;5.318;2023-11-22T01:13:43;4.60;1.40
18392;DHT22;9322;50.932;5.318;2023-11-22T01:16:11;4.60;1.40
18392;DHT22;9322;50.932;5.318;2023-11-22T01:18:38;4.50;1.40
18392;DHT22;9322;50.932;5.318;2023-11-22T01:21:04;4.60;1.40
18392;DHT22;9322;50.932;5.318;2023-11-22T01:23:30;4.60;1.40
18392;DHT22;9322;50.932;5.318;2023-11-22T01:26:00;4.70;1.40
18392;DHT22;9322;50.932;5.318;2023-11-22T01:28:26;4.80;1.40
18392;DHT22;9322;50.932;5.318;2023-11-22T01:30:53;4.90;1.40
18392;DHT22;9322;50.932;5.318;2023-11-22T01:33:23;4.90;1.40
18392;DHT22;9322;50.932;5.318;2023-11-22T01:35:49;4.90;1.40
18392;DHT22;9322;50.932;5.318;2023-11-22T01:38:18;5.10;1.40
18392;DHT22;9322;50.932;5.318;2023-11-22T01:40:44;5.30;1.40
18392;DHT22;9322;50.932;5.318;2023-11-22T01:43:18;5.20;1.40
18392;DHT22;9322;50.932;5.318;2023-11-22T01:45:44;5.10;1.40
18392;DHT22;9322;50.932;5.318;2023-11-22T01:48:13;5.20;1.40
18392;DHT22;9322;50.932;5.318;2023-11-22T01:50:40;5.20;1.40
18392;DHT22;9322;50.932;5.318;2023-11-22T01:53:11;5.30;1.40
18392;DHT22;9322;50.932;5.318;2023-11-22T01:55:39;5.20;1.40
18392;DHT22;9322;50.932;5.318;2023-11-22T01:58:06;5.20;1.40
18392;DHT22;9322;50.932;5.318;2023-11-22T02:00:36;5.20;1.40
18392;DHT22;9322;50.932;5.318;2023-11-22T02:03:06;5.20;1.40
18392;DHT22;9322;50.932;5.318;2023-11-22T02:05:32;5.20;1.40
18392;DHT22;9322;50.932;5.318;2023-11-22T02:07:58;5.30;1.40
18392;DHT22;9322;50.932;5.318;2023-11-22T02:10:24;5.20;1.40
18392;DHT22;9322;50.932;5.318;2023-11-22T02:12:50;5.30;1.40
18392;DHT22;9322;50.932;5.318;2023-11-22T02:15:16;5.30;1.40
18392;DHT22;9322;50.932;5.318;2023-11-22T02:17:41;5.20;1.40
18392;DHT22;9322;50.932;5.318;2023-11-22T02:20:07;5.30;1.40
18392;DHT22;9322;50.932;5.318;2023-11-22T02:22:43;5.20;1.40
18392;DHT22;9322;50.932;5.318;2023-11-22T02:25:09;5.30;1.40
18392;DHT22;9322;50.932;5.318;2023-11-22T02:27:35;5.40;1.40
18392;DHT22;9322;50.932;5.318;2023-11-22T02:30:03;5.30;1.40
18392;DHT22;9322;50.932;5.318;2023-11-22T02:32:32;5.40;1.40
18392;DHT22;9322;50.932;5.318;2023-11-22T02:34:58;5.30;1.40
18392;DHT22;9322;50.932;5.318;2023-11-22T02:37:24;5.40;1.40
18392;DHT22;9322;50.932;5.318;2023-11-22T02:40:08;5.30;1.40
18392;DHT22;9322;50.932;5.318;2023-11-22T02:42:35;5.30;1.40
18392;DHT22;9322;50.932;5.318;2023-11-22T02:45:01;5.30;1.40
18392;DHT22;9322;50.932;5.318;2023-11-22T02:47:27;5.30;1.40
18392;DHT22;9322;50.932;5.318;2023-11-22T02:49:52;5.30;1.40
18392;DHT22;9322;50.932;5.318;2023-11-22T02:52:20;5.40;1.40
18392;DHT22;9322;50.932;5.318;2023-11-22T02:54:47;5.30;1.40
18392;DHT22;9322;50.932;5.318;2023-11-22T02:57:13;5.30;1.40
18392;DHT22;9322;50.932;5.318;2023-11-22T02:59:43;5.30;1.40
18392;DHT22;9322;50.932;5.318;2023-11-22T03:02:09;5.30;1.40
18392;DHT22;9322;50.932;5.318;2023-11-22T03:04:35;5.30;1.40
18392;DHT22;9322;50.932;5.318;2023-11-22T03:07:01;5.40;1.40
18392;DHT22;9322;50.932;5.318;2023-11-22T03:09:27;5.40;1.40
18392;DHT22;9322;50.932;5.318;2023-11-22T03:11:53;5.60;1.40
18392;DHT22;9322;50.932;5.318;2023-11-22T03:14:19;5.60;1.40
18392;DHT22;9322;50.932;5.318;2023-11-22T03:16:45;5.90;1.40
18392;DHT22;9322;50.932;5.318;2023-11-22T03:19:11;5.70;1.40
18392;DHT22;9322;50.932;5.318;2023-11-22T03:21:39;5.70;1.40
18392;DHT22;9322;50.932;5.318;2023-11-22T03:24:09;5.70;1.40
18392;DHT22;9322;50.932;5.318;2023-11-22T03:26:35;5.60;1.40
18392;DHT22;9322;50.932;5.318;2023-11-22T03:29:01;5.60;1.40
18392;DHT22;9322;50.932;5.318;2023-11-22T03:31:27;5.60;1.40
18392;DHT22;9322;50.932;5.318;2023-11-22T03:33:54;5.50;1.40
18392;DHT22;9322;50.932;5.318;2023-11-22T03:36:20;5.40;1.40
18392;DHT22;9322;50.932;5.318;2023-11-22T03:38:48;5.50;1.40
18392;DHT22;9322;50.932;5.318;2023-11-22T03:41:14;5.40;1.40
18392;DHT22;9322;50.932;5.318;2023-11-22T03:43:40;5.40;1.40
18392;DHT22;9322;50.932;5.318;2023-11-22T03:46:06;5.50;1.40
18392;DHT22;9322;50.932;5.318;2023-11-22T03:48:31;5.50;1.40
18392;DHT22;9322;50.932;5.318;2023-11-22T03:50:57;5.50;1.40
18392;DHT22;9322;50.932;5.318;2023-11-22T03:53:23;5.60;1.40
18392;DHT22;9322;50.932;5.318;2023-11-22T03:55:49;5.70;1.40
18392;DHT22;9322;50.932;5.318;2023-11-22T03:58:16;5.80;1.40
18392;DHT22;9322;50.932;5.318;2023-11-22T04:00:43;5.60;1.40
18392;DHT22;9322;50.932;5.318;2023-11-22T04:03:09;5.60;1.40
18392;DHT22;9322;50.932;5.318;2023-11-22T04:05:35;5.80;1.40
18392;DHT22;9322;50.932;5.318;2023-11-22T04:08:01;5.70;1.40
18392;DHT22;9322;50.932;5.318;2023-11-22T04:10:27;5.60;1.40
18392;DHT22;9322;50.932;5.318;2023-11-22T04:12:52;5.60;1.40
18392;DHT22;9322;50.932;5.318;2023-11-22T04:15:18;5.50;1.40
18392;DHT22;9322;50.932;5.318;2023-11-22T04:17:44;5.60;1.40
18392;DHT22;9322;50.932;5.318;2023-11-22T04:20:10;5.50;1.40
18392;DHT22;9322;50.932;5.318;2023-11-22T04:22:44;5.40;1.40
18392;DHT22;9322;50.932;5.318;2023-11-22T04:25:13;5.50;1.40
18392;DHT22;9322;50.932;5.318;2023-11-22T04:27:40;5.60;1.40
18392;DHT22;9322;50.932;5.318;2023-11-22T04:30:07;5.50;1.40
18392;DHT22;9322;50.932;5.318;2023-11-22T04:32:40;5.40;1.40
18392;DHT22;9322;50.932;5.318;2023-11-22T04:35:10;5.50;1.40
18392;DHT22;9322;50.932;5.318;2023-11-22T04:37:36;5.50;1.40
18392;DHT22;9322;50.932;5.318;2023-11-22T04:40:03;5.60;1.40
18392;DHT22;9322;50.932;5.318;2023-11-22T04:42:34;5.60;1.40
18392;DHT22;9322;50.932;5.318;2023-11-22T04:45:00;5.60;1.40
18392;DHT22;9322;50.932;5.318;2023-11-22T04:47:25;5.50;1.40
18392;DHT22;9322;50.932;5.318;2023-11-22T04:49:51;5.50;1.40
18392;DHT22;9322;50.932;5.318;2023-11-22T04:52:17;5.50;1.40
18392;DHT22;9322;50.932;5.318;2023-11-22T04:54:42;5.50;1.40
18392;DHT22;9322;50.932;5.318;2023-11-22T04:57:08;5.40;1.40
18392;DHT22;9322;50.932;5.318;2023-11-22T04:59:34;5.50;1.40
18392;DHT22;9322;50.932;5.318;2023-11-22T05:01:59;5.40;1.40
18392;DHT22;9322;50.932;5.318;2023-11-22T05:04:25;5.50;1.40
18392;DHT22;9322;50.932;5.318;2023-11-22T05:06:53;5.50;1.40
18392;DHT22;9322;50.932;5.318;2023-11-22T05:09:19;5.40;1.40
18392;DHT22;9322;50.932;5.318;2023-11-22T05:11:45;5.40;1.40
18392;DHT22;9322;50.932;5.318;2023-11-22T05:14:11;5.30;1.40
18392;DHT22;9322;50.932;5.318;2023-11-22T05:16:38;5.20;1.40
18392;DHT22;9322;50.932;5.318;2023-11-22T05:19:04;5.30;1.40
18392;DHT22;9322;50.932;5.318;2023-11-22T05:21:31;5.30;1.40
18392;DHT22;9322;50.932;5.318;2023-11-22T05:24:00;5.40;1.40
18392;DHT22;9322;50.932;5.318;2023-11-22T05:26:26;5.30;1.40
18392;DHT22;9322;50.932;5.318;2023-11-22T05:28:52;5.30;1.40
18392;DHT22;9322;50.932;5.318;2023-11-22T05:31:21;5.30;1.40
18392;DHT22;9322;50.932;5.318;2023-11-22T05:33:48;5.40;1.40
18392;DHT22;9322;50.932;5.318;2023-11-22T05:36:14;5.50;1.40
18392;DHT22;9322;50.932;5.318;2023-11-22T05:38:42;5.60;1.40
18392;DHT22;9322;50.932;5.318;2023-11-22T05:41:08;5.50;1.40
18392;DHT22;9322;50.932;5.318;2023-11-22T05:43:34;5.50;1.40
18392;DHT22;9322;50.932;5.318;2023-11-22T05:46:03;5.60;1.40
18392;DHT22;9322;50.932;5.318;2023-11-22T05:48:29;5.50;1.40
18392;DHT22;9322;50.932;5.318;2023-11-22T05:50:56;5.70;1.40
18392;DHT22;9322;50.932;5.318;2023-11-22T05:53:21;5.60;1.40
18392;DHT22;9322;50.932;5.318;2023-11-22T05:55:48;5.60;1.40
18392;DHT22;9322;50.932;5.318;2023-11-22T05:58:14;5.50;1.40
18392;DHT22;9322;50.932;5.318;2023-11-22T06:00:45;5.60;1.40
18392;DHT22;9322;50.932;5.318;2023-11-22T06:03:12;5.50;1.40
18392;DHT22;9322;50.932;5.318;2023-11-22T06:05:38;5.40;1.40
18392;DHT22;9322;50.932;5.318;2023-11-22T06:08:04;5.50;1.40
18392;DHT22;9322;50.932;5.318;2023-11-22T06:10:30;5.30;1.40
18392;DHT22;9322;50.932;5.318;2023-11-22T06:12:56;5.30;1.40
18392;DHT22;9322;50.932;5.318;2023-11-22T06:15:21;5.40;1.40
18392;DHT22;9322;50.932;5.318;2023-11-22T06:17:48;5.50;1.40
18392;DHT22;9322;50.932;5.318;2023-11-22T06:20:14;5.60;1.40
18392;DHT22;9322;50.932;5.318;2023-11-22T06:22:40;5.50;1.40
18392;DHT22;9322;50.932;5.318;2023-11-22T06:25:13;5.50;1.40
18392;DHT22;9322;50.932;5.318;2023-11-22T06:27:39;5.40;1.40
18392;DHT22;9322;50.932;5.318;2023-11-22T06:30:08;5.50;1.40
18392;DHT22;9322;50.932;5.318;2023-11-22T06:32:36;5.50;1.40
18392;DHT22;9322;50.932;5.318;2023-11-22T06:35:02;5.40;1.40
18392;DHT22;9322;50.932;5.318;2023-11-22T06:37:28;5.50;1.40
18392;DHT22;9322;50.932;5.318;2023-11-22T06:39:54;5.50;1.40
18392;DHT22;9322;50.932;5.318;2023-11-22T06:42:20;5.30;1.40
18392;DHT22;9322;50.932;5.318;2023-11-22T06:44:46;5.20;1.40
18392;DHT22;9322;50.932;5.318;2023-11-22T06:47:13;5.20;1.40
18392;DHT22;9322;50.932;5.318;2023-11-22T06:49:39;5.40;1.40
18392;DHT22;9322;50.932;5.318;2023-11-22T06:52:05;5.40;1.40
18392;DHT22;9322;50.932;5.318;2023-11-22T06:54:31;5.50;1.40
18392;DHT22;9322;50.932;5.318;2023-11-22T06:56:56;5.40;1.40
18392;DHT22;9322;50.932;5.318;2023-11-22T06:59:22;5.50;1.40
18392;DHT22;9322;50.932;5.318;2023-11-22T07:01:48;5.40;1.40
18392;DHT22;9322;50.932;5.318;2023-11-22T07:04:14;5.40;1.40
18392;DHT22;9322;50.932;5.318;2023-11-22T07:06:40;5.50;1.40
18392;DHT22;9322;50.932;5.318;2023-11-22T07:09:08;5.40;1.40
18392;DHT22;9322;50.932;5.318;2023-11-22T07:11:37;5.40;1.40
18392;DHT22;9322;50.932;5.318;2023-11-22T07:14:03;5.50;1.40
18392;DHT22;9322;50.932;5.318;2023-11-22T07:16:29;5.50;1.40
18392;DHT22;9322;50.932;5.318;2023-11-22T07:18:57;5.50;1.40
18392;DHT22;9322;50.932;5.318;2023-11-22T07:21:23;5.50;1.40
18392;DHT22;9322;50.932;5.318;2023-11-22T07:23:48;5.30;1.40
18392;DHT22;9322;50.932;5.318;2023-11-22T07:26:14;5.30;1.40
18392;DHT22;9322;50.932;5.318;2023-11-22T07:28:41;5.40;1.40
18392;DHT22;9322;50.932;5.318;2023-11-22T07:31:09;5.40;1.40
18392;DHT22;9322;50.932;5.318;2023-11-22T07:33:35;5.50;1.40
18392;DHT22;9322;50.932;5.318;2023-11-22T07:36:01;5.50;1.40
18392;DHT22;9322;50.932;5.318;2023-11-22T07:38:28;5.60;1.40
18392;DHT22;9322;50.932;5.318;2023-11-22T07:40:55;5.60;1.40
18392;DHT22;9322;50.932;5.318;2023-11-22T07:43:22;5.60;1.40
18392;DHT22;9322;50.932;5.318;2023-11-22T07:45:47;5.70;1.40
18392;DHT22;9322;50.932;5.318;2023-11-22T07:48:14;5.70;1.40
18392;DHT22;9322;50.932;5.318;2023-11-22T07:50:40;5.70;1.40
18392;DHT22;9322;50.932;5.318;2023-11-22T07:53:10;5.60;1.40
18392;DHT22;9322;50.932;5.318;2023-11-22T07:55:40;5.60;1.40
18392;DHT22;9322;50.932;5.318;2023-11-22T07:58:07;5.60;1.40
18392;DHT22;9322;50.932;5.318;2023-11-22T08:00:33;5.70;1.40
18392;DHT22;9322;50.932;5.318;2023-11-22T08:03:00;5.80;1.40
18392;DHT22;9322;50.932;5.318;2023-11-22T08:05:29;5.90;1.40
18392;DHT22;9322;50.932;5.318;2023-11-22T08:08:03;6.00;1.40
18392;DHT22;9322;50.932;5.318;2023-11-22T08:10:36;5.90;1.40
18392;DHT22;9322;50.932;5.318;2023-11-22T08:13:02;6.00;1.40
18392;DHT22;9322;50.932;5.318;2023-11-22T08:15:29;6.10;1.40
18392;DHT22;9322;50.932;5.318;2023-11-22T08:17:55;6.20;1.40
18392;DHT22;9322;50.932;5.318;2023-11-22T08:20:20;6.20;1.40
18392;DHT22;9322;50.932;5.318;2023-11-22T08:22:47;6.30;1.40
18392;DHT22;9322;50.932;5.318;2023-11-22T08:25:14;6.20;1.40
18392;DHT22;9322;50.932;5.318;2023-11-22T08:27:41;6.20;1.40
18392;DHT22;9322;50.932;5.318;2023-11-22T08:30:08;6.10;1.40
18392;DHT22;9322;50.932;5.318;2023-11-22T08:32:42;6.00;1.40
18392;DHT22;9322;50.932;5.318;2023-11-22T08:35:09;6.10;1.40
18392;DHT22;9322;50.932;5.318;2023-11-22T08:37:35;6.00;1.40
18392;DHT22;9322;50.932;5.318;2023-11-22T08:40:05;5.90;1.40
18392;DHT22;9322;50.932;5.318;2023-11-22T08:42:31;5.90;1.40
18392;DHT22;9322;50.932;5.318;2023-11-22T08:44:57;5.90;1.40
18392;DHT22;9322;50.932;5.318;2023-11-22T08:47:23;5.90;1.40
18392;DHT22;9322;50.932;5.318;2023-11-22T08:49:49;6.10;1.40
18392;DHT22;9322;50.932;5.318;2023-11-22T08:52:14;6.10;1.40
18392;DHT22;9322;50.932;5.318;2023-11-22T08:54:40;6.10;1.40
18392;DHT22;9322;50.932;5.318;2023-11-22T08:57:06;6.40;1.40
18392;DHT22;9322;50.932;5.318;2023-11-22T08:59:33;6.40;1.40
18392;DHT22;9322;50.932;5.318;2023-11-22T09:02:04;6.20;1.40
18392;DHT22;9322;50.932;5.318;2023-11-22T09:04:30;6.20;1.40
18392;DHT22;9322;50.932;5.318;2023-11-22T09:06:57;6.50;1.40
18392;DHT22;9322;50.932;5.318;2023-11-22T09:09:23;6.70;1.40
18392;DHT22;9322;50.932;5.318;2023-11-22T09:11:59;6.80;1.40
18392;DHT22;9322;50.932;5.318;2023-11-22T09:14:25;6.90;1.40
18392;DHT22;9322;50.932;5.318;2023-11-22T09:16:51;6.90;1.40
18392;DHT22;9322;50.932;5.318;2023-11-22T09:19:21;6.70;1.40
18392;DHT22;9322;50.932;5.318;2023-11-22T09:21:47;6.70;1.40
18392;DHT22;9322;50.932;5.318;2023-11-22T09:24:13;6.90;1.40
18392;DHT22;9322;50.932;5.318;2023-11-22T09:26:38;6.80;1.40
18392;DHT22;9322;50.932;5.318;2023-11-22T09:29:04;7.10;1.40
18392;DHT22;9322;50.932;5.318;2023-11-22T09:31:30;7.20;1.40
18392;DHT22;9322;50.932;5.318;2023-11-22T09:33:56;7.10;1.40
18392;DHT22;9322;50.932;5.318;2023-11-22T09:36:25;6.90;1.40
18392;DHT22;9322;50.932;5.318;2023-11-22T09:38:53;6.90;1.40
18392;DHT22;9322;50.932;5.318;2023-11-22T09:41:19;7.00;1.40
18392;DHT22;9322;50.932;5.318;2023-11-22T09:43:45;7.00;1.40
18392;DHT22;9322;50.932;5.318;2023-11-22T09:46:15;6.90;1.40
18392;DHT22;9322;50.932;5.318;2023-11-22T09:48:43;7.00;1.40
18392;DHT22;9322;50.932;5.318;2023-11-22T09:56:10;6.70;1.40
18392;DHT22;9322;50.932;5.318;2023-11-22T09:58:40;6.90;1.40
18392;DHT22;9322;50.932;5.318;2023-11-22T10:01:13;7.10;1.40
18392;DHT22;9322;50.932;5.318;2023-11-22T10:03:39;7.20;1.40
18392;DHT22;9322;50.932;5.318;2023-11-22T10:06:06;7.40;1.40
18392;DHT22;9322;50.932;5.318;2023-11-22T10:08:32;7.40;1.40
18392;DHT22;9322;50.932;5.318;2023-11-22T10:10:59;7.40;1.40
18392;DHT22;9322;50.932;5.318;2023-11-22T10:13:25;7.20;1.40
18392;DHT22;9322;50.932;5.318;2023-11-22T10:15:52;7.40;1.40
18392;DHT22;9322;50.932;5.318;2023-11-22T10:18:19;7.50;1.40
18392;DHT22;9322;50.932;5.318;2023-11-22T10:20:47;7.60;1.40
18392;DHT22;9322;50.932;5.318;2023-11-22T10:23:16;7.70;1.40
18392;DHT22;9322;50.932;5.318;2023-11-22T10:25:53;7.80;1.40
18392;DHT22;9322;50.932;5.318;2023-11-22T10:28:22;7.80;1.40
18392;DHT22;9322;50.932;5.318;2023-11-22T10:30:51;7.90;1.40
18392;DHT22;9322;50.932;5.318;2023-11-22T10:33:18;7.60;1.40
18392;DHT22;9322;50.932;5.318;2023-11-22T10:35:50;7.50;1.40
18392;DHT22;9322;50.932;5.318;2023-11-22T10:38:17;7.50;1.40
18392;DHT22;9322;50.932;5.318;2023-11-22T10:40:44;7.60;1.40
18392;DHT22;9322;50.932;5.318;2023-11-22T10:43:17;7.80;1.40
18392;DHT22;9322;50.932;5.318;2023-11-22T10:45:44;8.00;1.40
18392;DHT22;9322;50.932;5.318;2023-11-22T10:48:14;8.00;1.40
18392;DHT22;9322;50.932;5.318;2023-11-22T10:50:47;8.10;1.40
18392;DHT22;9322;50.932;5.318;2023-11-22T10:53:16;8.50;1.40
18392;DHT22;9322;50.932;5.318;2023-11-22T10:55:46;8.60;1.40
18392;DHT22;9322;50.932;5.318;2023-11-22T10:58:15;8.80;1.40
18392;DHT22;9322;50.932;5.318;2023-11-22T11:00:41;9.00;1.40
18392;DHT22;9322;50.932;5.318;2023-11-22T11:03:13;8.80;1.40
18392;DHT22;9322;50.932;5.318;2023-11-22T11:05:42;8.40;1.40
18392;DHT22;9322;50.932;5.318;2023-11-22T11:08:13;8.50;1.40
18392;DHT22;9322;50.932;5.318;2023-11-22T11:10:45;8.30;1.40
18392;DHT22;9322;50.932;5.318;2023-11-22T11:13:11;8.30;1.40
18392;DHT22;9322;50.932;5.318;2023-11-22T11:15:39;8.30;1.40
18392;DHT22;9322;50.932;5.318;2023-11-22T11:18:06;8.20;1.40
18392;DHT22;9322;50.932;5.318;2023-11-22T11:20:54;8.40;1.40
18392;DHT22;9322;50.932;5.318;2023-11-22T11:23:23;8.40;1.40
18392;DHT22;9322;50.932;5.318;2023-11-22T11:25:57;8.60;1.40
18392;DHT22;9322;50.932;5.318;2023-11-22T11:28:25;8.50;1.40
18392;DHT22;9322;50.932;5.318;2023-11-22T11:30:52;8.60;1.40
18392;DHT22;9322;50.932;5.318;2023-11-22T11:33:33;8.60;1.40
18392;DHT22;9322;50.932;5.318;2023-11-22T11:36:01;8.50;1.40
18392;DHT22;9322;50.932;5.318;2023-11-22T11:38:34;8.70;1.40
18392;DHT22;9322;50.932;5.318;2023-11-22T11:41:09;8.30;1.40
18392;DHT22;9322;50.932;5.318;2023-11-22T11:43:47;8.70;1.40
18392;DHT22;9322;50.932;5.318;2023-11-22T11:46:14;9.20;1.40
18392;DHT22;9322;50.932;5.318;2023-11-22T11:48:51;10.20;1.40
18392;DHT22;9322;50.932;5.318;2023-11-22T11:51:27;10.70;1.40
18392;DHT22;9322;50.932;5.318;2023-11-22T11:53:54;10.40;1.40
18392;DHT22;9322;50.932;5.318;2023-11-22T11:56:21;9.90;1.40
18392;DHT22;9322;50.932;5.318;2023-11-22T11:58:48;10.10;1.40
18392;DHT22;9322;50.932;5.318;2023-11-22T12:01:18;9.90;1.40
18392;DHT22;9322;50.932;5.318;2023-11-22T12:03:47;9.80;1.40
18392;DHT22;9322;50.932;5.318;2023-11-22T12:06:19;10.30;1.40
18392;DHT22;9322;50.932;5.318;2023-11-22T12:08:45;10.90;1.40
18392;DHT22;9322;50.932;5.318;2023-11-22T12:11:13;10.90;1.40
18392;DHT22;9322;50.932;5.318;2023-11-22T12:13:39;10.50;1.40
18392;DHT22;9322;50.932;5.318;2023-11-22T12:16:09;10.30;1.40
18392;DHT22;9322;50.932;5.318;2023-11-22T12:18:44;10.10;1.40
18392;DHT22;9322;50.932;5.318;2023-11-22T12:21:11;10.40;1.40
18392;DHT22;9322;50.932;5.318;2023-11-22T12:23:40;10.80;1.40
18392;DHT22;9322;50.932;5.318;2023-11-22T12:26:12;10.40;1.40
18392;DHT22;9322;50.932;5.318;2023-11-22T12:28:39;10.40;1.40
18392;DHT22;9322;50.932;5.318;2023-11-22T12:31:13;10.30;1.40
18392;DHT22;9322;50.932;5.318;2023-11-22T12:33:40;9.20;1.40
18392;DHT22;9322;50.932;5.318;2023-11-22T12:36:07;8.60;1.40
18392;DHT22;9322;50.932;5.318;2023-11-22T12:38:43;8.70;1.40
18392;DHT22;9322;50.932;5.318;2023-11-22T12:41:09;8.80;1.40
18392;DHT22;9322;50.932;5.318;2023-11-22T12:43:35;8.90;1.40
18392;DHT22;9322;50.932;5.318;2023-11-22T12:46:07;8.80;1.40
18392;DHT22;9322;50.932;5.318;2023-11-22T12:48:33;8.70;1.40
18392;DHT22;9322;50.932;5.318;2023-11-22T12:51:00;8.60;1.40
18392;DHT22;9322;50.932;5.318;2023-11-22T12:53:26;8.70;1.40
18392;DHT22;9322;50.932;5.318;2023-11-22T12:55:55;8.70;1.40
18392;DHT22;9322;50.932;5.318;2023-11-22T12:58:27;8.80;1.40
18392;DHT22;9322;50.932;5.318;2023-11-22T13:00:54;8.70;1.40
18392;DHT22;9322;50.932;5.318;2023-11-22T13:03:28;8.60;1.40
18392;DHT22;9322;50.932;5.318;2023-11-22T13:05:54;8.70;1.40
18392;DHT22;9322;50.932;5.318;2023-11-22T13:08:20;8.60;1.40
18392;DHT22;9322;50.932;5.318;2023-11-22T13:10:49;8.50;1.40
18392;DHT22;9322;50.932;5.318;2023-11-22T13:13:24;8.40;1.40
18392;DHT22;9322;50.932;5.318;2023-11-22T13:15:51;8.50;1.40
18392;DHT22;9322;50.932;5.318;2023-11-22T13:18:18;8.60;1.40
18392;DHT22;9322;50.932;5.318;2023-11-22T13:20:44;8.60;1.40
18392;DHT22;9322;50.932;5.318;2023-11-22T13:23:10;8.50;1.40
18392;DHT22;9322;50.932;5.318;2023-11-22T13:25:37;8.60;1.40
18392;DHT22;9322;50.932;5.318;2023-11-22T13:28:03;8.80;1.40
18392;DHT22;9322;50.932;5.318;2023-11-22T13:30:31;8.80;1.40
18392;DHT22;9322;50.932;5.318;2023-11-22T13:32:56;8.90;1.40
18392;DHT22;9322;50.932;5.318;2023-11-22T13:35:23;9.00;1.40
18392;DHT22;9322;50.932;5.318;2023-11-22T13:37:49;8.80;1.40
18392;DHT22;9322;50.932;5.318;2023-11-22T13:40:19;8.60;1.40
18392;DHT22;9322;50.932;5.318;2023-11-22T13:42:50;8.50;1.40
18392;DHT22;9322;50.932;5.318;2023-11-22T13:45:18;8.30;1.40
18392;DHT22;9322;50.932;5.318;2023-11-22T13:47:45;8.10;1.40
18392;DHT22;9322;50.932;5.318;2023-11-22T13:50:13;8.00;1.40
18392;DHT22;9322;50.932;5.318;2023-11-22T13:52:41;8.00;1.40
18392;DHT22;9322;50.932;5.318;2023-11-22T13:55:07;7.90;1.40
18392;DHT22;9322;50.932;5.318;2023-11-22T13:57:38;7.80;1.40
18392;DHT22;9322;50.932;5.318;2023-11-22T14:00:08;7.80;1.40
18392;DHT22;9322;50.932;5.318;2023-11-22T14:02:47;7.90;1.40
18392;DHT22;9322;50.932;5.318;2023-11-22T14:05:13;7.90;1.40
18392;DHT22;9322;50.932;5.318;2023-11-22T14:07:39;7.80;1.40
18392;DHT22;9322;50.932;5.318;2023-11-22T14:10:05;7.90;1.40
18392;DHT22;9322;50.932;5.318;2023-11-22T14:12:31;7.80;1.40
18392;DHT22;9322;50.932;5.318;2023-11-22T14:14:58;7.70;1.40
18392;DHT22;9322;50.932;5.318;2023-11-22T14:17:25;7.70;1.40
18392;DHT22;9322;50.932;5.318;2023-11-22T14:19:52;7.80;1.40
18392;DHT22;9322;50.932;5.318;2023-11-22T14:22:18;7.60;1.40
18392;DHT22;9322;50.932;5.318;2023-11-22T14:24:44;7.70;1.40
18392;DHT22;9322;50.932;5.318;2023-11-22T14:27:12;7.70;1.40
18392;DHT22;9322;50.932;5.318;2023-11-22T14:29:38;7.90;1.40
18392;DHT22;9322;50.932;5.318;2023-11-22T14:32:05;7.70;1.40
18392;DHT22;9322;50.932;5.318;2023-11-22T14:34:32;7.70;1.40
18392;DHT22;9322;50.932;5.318;2023-11-22T14:36:58;7.60;1.40
18392;DHT22;9322;50.932;5.318;2023-11-22T14:39:24;7.80;1.40
18392;DHT22;9322;50.932;5.318;2023-11-22T14:41:49;7.80;1.40
18392;DHT22;9322;50.932;5.318;2023-11-22T14:44:16;7.70;1.40
18392;DHT22;9322;50.932;5.318;2023-11-22T14:46:43;7.70;1.40
18392;DHT22;9322;50.932;5.318;2023-11-22T14:49:09;7.80;1.40
18392;DHT22;9322;50.932;5.318;2023-11-22T14:51:35;7.70;1.40
18392;DHT22;9322;50.932;5.318;2023-11-22T14:54:00;7.70;1.40
18392;DHT22;9322;50.932;5.318;2023-11-22T14:56:26;7.60;1.40
18392;DHT22;9322;50.932;5.318;2023-11-22T14:58:52;7.60;1.40
18392;DHT22;9322;50.932;5.318;2023-11-22T15:01:21;7.60;1.40
18392;DHT22;9322;50.932;5.318;2023-11-22T15:03:49;7.50;1.40
18392;DHT22;9322;50.932;5.318;2023-11-22T15:06:17;7.50;1.40
18392;DHT22;9322;50.932;5.318;2023-11-22T15:08:43;7.40;1.40
18392;DHT22;9322;50.932;5.318;2023-11-22T15:11:08;7.40;1.40
18392;DHT22;9322;50.932;5.318;2023-11-22T15:13:35;7.30;1.40
18392;DHT22;9322;50.932;5.318;2023-11-22T15:16:01;7.30;1.40
18392;DHT22;9322;50.932;5.318;2023-11-22T15:18:27;7.30;1.40
18392;DHT22;9322;50.932;5.318;2023-11-22T15:20:53;7.40;1.40
18392;DHT22;9322;50.932;5.318;2023-11-22T15:23:19;7.60;1.40
18392;DHT22;9322;50.932;5.318;2023-11-22T15:25:47;7.40;1.40
18392;DHT22;9322;50.932;5.318;2023-11-22T15:28:13;7.30;1.40
18392;DHT22;9322;50.932;5.318;2023-11-22T15:30:49;7.30;1.40
18392;DHT22;9322;50.932;5.318;2023-11-22T15:33:17;7.30;1.40
18392;DHT22;9322;50.932;5.318;2023-11-22T15:35:43;7.30;1.40
18392;DHT22;9322;50.932;5.318;2023-11-22T15:38:09;7.20;1.40
18392;DHT22;9322;50.932;5.318;2023-11-22T15:40:35;7.20;1.40
18392;DHT22;9322;50.932;5.318;2023-11-22T15:43:00;7.20;1.40
18392;DHT22;9322;50.932;5.318;2023-11-22T15:45:26;7.10;1.40
18392;DHT22;9322;50.932;5.318;2023-11-22T15:47:52;7.10;1.40
18392;DHT22;9322;50.932;5.318;2023-11-22T15:50:18;7.00;1.40
18392;DHT22;9322;50.932;5.318;2023-11-22T15:52:43;7.00;1.40
18392;DHT22;9322;50.932;5.318;2023-11-22T15:55:09;7.00;1.40
18392;DHT22;9322;50.932;5.318;2023-11-22T15:57:35;7.10;1.40
18392;DHT22;9322;50.932;5.318;2023-11-22T16:00:01;7.10;1.40
18392;DHT22;9322;50.932;5.318;2023-11-22T16:02:29;7.10;1.40
18392;DHT22;9322;50.932;5.318;2023-11-22T16:04:55;7.00;1.40
18392;DHT22;9322;50.932;5.318;2023-11-22T16:07:21;7.00;1.40
18392;DHT22;9322;50.932;5.318;2023-11-22T16:09:47;7.00;1.40
18392;DHT22;9322;50.932;5.318;2023-11-22T16:12:12;7.00;1.40
18392;DHT22;9322;50.932;5.318;2023-11-22T16:14:45;6.90;1.40
18392;DHT22;9322;50.932;5.318;2023-11-22T16:17:11;7.10;1.40
18392;DHT22;9322;50.932;5.318;2023-11-22T16:19:37;7.20;1.40
18392;DHT22;9322;50.932;5.318;2023-11-22T16:22:03;7.10;1.40